sensor_id;sensor_type;location;lat;lon;timestamp;P1;durP1;ratioP1;P2;durP2;ratioP2
17451;SDS011;8843;48.838;9.324;2024-02-21T00:01:16;6.40;;;3.23;;
17451;SDS011;8843;48.838;9.324;2024-02-21T00:03:45;8.33;;;3.00;;
17451;SDS011;8843;48.838;9.324;2024-02-21T00:06:12;6.03;;;3.23;;
17451;SDS011;8843;48.838;9.324;2024-02-21T00:08:39;7.87;;;3.40;;
17451;SDS011;8843;48.838;9.324;2024-02-21T00:11:08;7.67;;;3.47;;
17451;SDS011;8843;48.838;9.324;2024-02-21T00:13:35;6.63;;;3.00;;
17451;SDS011;8843;48.838;9.324;2024-02-21T00:16:02;5.17;;;3.20;;
17451;SDS011;8843;48.838;9.324;2024-02-21T00:18:29;8.20;;;3.53;;
17451;SDS011;8843;48.838;9.324;2024-02-21T00:20:57;13.07;;;3.70;;
17451;SDS011;8843;48.838;9.324;2024-02-21T00:23:24;6.60;;;3.23;;
17451;SDS011;8843;48.838;9.324;2024-02-21T00:25:51;3.80;;;3.00;;
17451;SDS011;8843;48.838;9.324;2024-02-21T00:28:19;7.60;;;3.20;;
17451;SDS011;8843;48.838;9.324;2024-02-21T00:30:46;8.10;;;3.70;;
17451;SDS011;8843;48.838;9.324;2024-02-21T00:33:15;8.23;;;3.77;;
17451;SDS011;8843;48.838;9.324;2024-02-21T00:35:42;5.87;;;3.03;;
17451;SDS011;8843;48.838;9.324;2024-02-21T00:38:12;7.93;;;3.40;;
17451;SDS011;8843;48.838;9.324;2024-02-21T00:40:39;5.37;;;2.97;;
17451;SDS011;8843;48.838;9.324;2024-02-21T00:43:06;7.53;;;3.40;;
17451;SDS011;8843;48.838;9.324;2024-02-21T00:45:35;5.37;;;2.90;;
17451;SDS011;8843;48.838;9.324;2024-02-21T00:48:02;9.80;;;3.63;;
17451;SDS011;8843;48.838;9.324;2024-02-21T00:50:30;4.53;;;3.53;;
17451;SDS011;8843;48.838;9.324;2024-02-21T00:52:57;8.87;;;3.17;;
17451;SDS011;8843;48.838;9.324;2024-02-21T00:55:24;7.37;;;3.20;;
17451;SDS011;8843;48.838;9.324;2024-02-21T00:57:51;8.33;;;3.77;;
17451;SDS011;8843;48.838;9.324;2024-02-21T01:00:19;4.17;;;2.97;;
17451;SDS011;8843;48.838;9.324;2024-02-21T01:02:47;7.83;;;3.00;;
17451;SDS011;8843;48.838;9.324;2024-02-21T01:05:15;7.60;;;3.23;;
17451;SDS011;8843;48.838;9.324;2024-02-21T01:07:42;6.07;;;3.30;;
17451;SDS011;8843;48.838;9.324;2024-02-21T01:10:09;5.97;;;3.17;;
17451;SDS011;8843;48.838;9.324;2024-02-21T01:12:36;5.33;;;3.20;;
17451;SDS011;8843;48.838;9.324;2024-02-21T01:15:03;7.40;;;3.23;;
17451;SDS011;8843;48.838;9.324;2024-02-21T01:17:31;7.03;;;2.60;;
17451;SDS011;8843;48.838;9.324;2024-02-21T01:19:59;7.50;;;2.97;;
17451;SDS011;8843;48.838;9.324;2024-02-21T01:22:27;5.30;;;3.17;;
17451;SDS011;8843;48.838;9.324;2024-02-21T01:24:53;4.77;;;2.83;;
17451;SDS011;8843;48.838;9.324;2024-02-21T01:27:20;7.13;;;2.90;;
17451;SDS011;8843;48.838;9.324;2024-02-21T01:29:48;6.50;;;3.30;;
17451;SDS011;8843;48.838;9.324;2024-02-21T01:32:15;6.67;;;3.37;;
17451;SDS011;8843;48.838;9.324;2024-02-21T01:34:43;8.00;;;3.00;;
17451;SDS011;8843;48.838;9.324;2024-02-21T01:37:11;4.80;;;2.83;;
17451;SDS011;8843;48.838;9.324;2024-02-21T01:39:38;6.80;;;2.73;;
17451;SDS011;8843;48.838;9.324;2024-02-21T01:42:05;12.13;;;3.27;;
17451;SDS011;8843;48.838;9.324;2024-02-21T01:44:34;5.73;;;3.03;;
17451;SDS011;8843;48.838;9.324;2024-02-21T01:47:01;7.10;;;3.10;;
17451;SDS011;8843;48.838;9.324;2024-02-21T01:49:29;8.47;;;3.13;;
17451;SDS011;8843;48.838;9.324;2024-02-21T01:51:56;7.40;;;3.20;;
17451;SDS011;8843;48.838;9.324;2024-02-21T01:54:25;9.20;;;3.33;;
17451;SDS011;8843;48.838;9.324;2024-02-21T01:56:54;6.13;;;3.40;;
17451;SDS011;8843;48.838;9.324;2024-02-21T01:59:21;5.80;;;3.40;;
17451;SDS011;8843;48.838;9.324;2024-02-21T02:01:49;11.67;;;3.80;;
17451;SDS011;8843;48.838;9.324;2024-02-21T02:04:17;8.77;;;3.30;;
17451;SDS011;8843;48.838;9.324;2024-02-21T02:06:46;7.33;;;2.80;;
17451;SDS011;8843;48.838;9.324;2024-02-21T02:09:13;4.47;;;2.87;;
17451;SDS011;8843;48.838;9.324;2024-02-21T02:11:42;6.90;;;3.50;;
17451;SDS011;8843;48.838;9.324;2024-02-21T02:14:09;7.53;;;3.70;;
17451;SDS011;8843;48.838;9.324;2024-02-21T02:16:36;7.67;;;2.90;;
17451;SDS011;8843;48.838;9.324;2024-02-21T02:19:05;5.40;;;3.07;;
17451;SDS011;8843;48.838;9.324;2024-02-21T02:21:34;9.27;;;3.37;;
17451;SDS011;8843;48.838;9.324;2024-02-21T02:24:07;6.87;;;3.13;;
17451;SDS011;8843;48.838;9.324;2024-02-21T02:26:34;8.73;;;3.00;;
17451;SDS011;8843;48.838;9.324;2024-02-21T02:29:03;4.97;;;2.70;;
17451;SDS011;8843;48.838;9.324;2024-02-21T02:31:30;6.13;;;3.00;;
17451;SDS011;8843;48.838;9.324;2024-02-21T02:33:57;6.53;;;2.90;;
17451;SDS011;8843;48.838;9.324;2024-02-21T02:36:24;6.90;;;3.17;;
17451;SDS011;8843;48.838;9.324;2024-02-21T02:38:52;6.50;;;3.57;;
17451;SDS011;8843;48.838;9.324;2024-02-21T02:41:20;6.33;;;3.23;;
17451;SDS011;8843;48.838;9.324;2024-02-21T02:43:48;5.80;;;2.87;;
17451;SDS011;8843;48.838;9.324;2024-02-21T02:46:16;5.07;;;2.57;;
17451;SDS011;8843;48.838;9.324;2024-02-21T02:48:43;5.13;;;2.67;;
17451;SDS011;8843;48.838;9.324;2024-02-21T02:51:11;4.63;;;2.77;;
17451;SDS011;8843;48.838;9.324;2024-02-21T02:53:38;10.50;;;2.80;;
17451;SDS011;8843;48.838;9.324;2024-02-21T02:56:05;7.20;;;3.07;;
17451;SDS011;8843;48.838;9.324;2024-02-21T02:58:33;8.77;;;3.00;;
17451;SDS011;8843;48.838;9.324;2024-02-21T03:01:01;6.23;;;2.90;;
17451;SDS011;8843;48.838;9.324;2024-02-21T03:03:29;8.70;;;2.93;;
17451;SDS011;8843;48.838;9.324;2024-02-21T03:05:56;9.00;;;3.33;;
17451;SDS011;8843;48.838;9.324;2024-02-21T03:08:23;10.33;;;2.73;;
17451;SDS011;8843;48.838;9.324;2024-02-21T03:10:50;7.13;;;2.83;;
17451;SDS011;8843;48.838;9.324;2024-02-21T03:13:17;7.33;;;3.07;;
17451;SDS011;8843;48.838;9.324;2024-02-21T03:15:45;6.57;;;3.20;;
17451;SDS011;8843;48.838;9.324;2024-02-21T03:18:12;7.37;;;2.77;;
17451;SDS011;8843;48.838;9.324;2024-02-21T03:20:39;5.23;;;2.67;;
17451;SDS011;8843;48.838;9.324;2024-02-21T03:23:07;6.07;;;2.77;;
17451;SDS011;8843;48.838;9.324;2024-02-21T03:25:34;9.13;;;3.70;;
17451;SDS011;8843;48.838;9.324;2024-02-21T03:28:01;4.53;;;3.20;;
17451;SDS011;8843;48.838;9.324;2024-02-21T03:30:29;4.97;;;2.97;;
17451;SDS011;8843;48.838;9.324;2024-02-21T03:32:57;6.17;;;2.60;;
17451;SDS011;8843;48.838;9.324;2024-02-21T03:35:26;5.67;;;3.07;;
17451;SDS011;8843;48.838;9.324;2024-02-21T03:37:53;4.90;;;3.00;;
17451;SDS011;8843;48.838;9.324;2024-02-21T03:40:20;5.00;;;2.83;;
17451;SDS011;8843;48.838;9.324;2024-02-21T03:42:47;7.50;;;2.83;;
17451;SDS011;8843;48.838;9.324;2024-02-21T03:45:14;6.33;;;2.90;;
17451;SDS011;8843;48.838;9.324;2024-02-21T03:47:42;6.57;;;2.60;;
17451;SDS011;8843;48.838;9.324;2024-02-21T03:50:10;5.70;;;2.90;;
17451;SDS011;8843;48.838;9.324;2024-02-21T03:52:39;4.40;;;2.63;;
17451;SDS011;8843;48.838;9.324;2024-02-21T03:55:07;8.13;;;2.47;;
17451;SDS011;8843;48.838;9.324;2024-02-21T03:57:35;4.33;;;2.33;;
17451;SDS011;8843;48.838;9.324;2024-02-21T04:00:04;6.23;;;3.10;;
17451;SDS011;8843;48.838;9.324;2024-02-21T04:02:35;6.07;;;2.90;;
17451;SDS011;8843;48.838;9.324;2024-02-21T04:05:03;4.57;;;2.73;;
17451;SDS011;8843;48.838;9.324;2024-02-21T04:07:32;3.13;;;2.07;;
17451;SDS011;8843;48.838;9.324;2024-02-21T04:09:59;5.73;;;2.70;;
17451;SDS011;8843;48.838;9.324;2024-02-21T04:12:26;6.90;;;2.87;;
17451;SDS011;8843;48.838;9.324;2024-02-21T04:14:53;7.33;;;3.40;;
17451;SDS011;8843;48.838;9.324;2024-02-21T04:17:20;6.77;;;2.77;;
17451;SDS011;8843;48.838;9.324;2024-02-21T04:19:50;6.50;;;3.33;;
17451;SDS011;8843;48.838;9.324;2024-02-21T04:22:30;7.47;;;2.87;;
17451;SDS011;8843;48.838;9.324;2024-02-21T04:24:58;5.80;;;2.80;;
17451;SDS011;8843;48.838;9.324;2024-02-21T04:27:26;5.80;;;3.03;;
17451;SDS011;8843;48.838;9.324;2024-02-21T04:29:54;5.37;;;2.50;;
17451;SDS011;8843;48.838;9.324;2024-02-21T04:32:21;4.83;;;2.23;;
17451;SDS011;8843;48.838;9.324;2024-02-21T04:34:52;3.47;;;2.63;;
17451;SDS011;8843;48.838;9.324;2024-02-21T04:37:21;4.10;;;2.63;;
17451;SDS011;8843;48.838;9.324;2024-02-21T04:39:50;4.37;;;2.47;;
17451;SDS011;8843;48.838;9.324;2024-02-21T04:42:18;4.20;;;2.57;;
17451;SDS011;8843;48.838;9.324;2024-02-21T04:44:45;5.70;;;2.30;;
17451;SDS011;8843;48.838;9.324;2024-02-21T04:47:12;5.70;;;2.53;;
17451;SDS011;8843;48.838;9.324;2024-02-21T04:49:39;8.93;;;2.77;;
17451;SDS011;8843;48.838;9.324;2024-02-21T04:52:07;4.17;;;2.50;;
17451;SDS011;8843;48.838;9.324;2024-02-21T04:54:34;5.67;;;3.10;;
17451;SDS011;8843;48.838;9.324;2024-02-21T04:57:01;6.60;;;3.37;;
17451;SDS011;8843;48.838;9.324;2024-02-21T04:59:30;5.77;;;3.10;;
17451;SDS011;8843;48.838;9.324;2024-02-21T05:01:57;6.13;;;2.50;;
17451;SDS011;8843;48.838;9.324;2024-02-21T05:04:24;5.73;;;2.80;;
17451;SDS011;8843;48.838;9.324;2024-02-21T05:06:51;6.30;;;2.60;;
17451;SDS011;8843;48.838;9.324;2024-02-21T05:09:19;5.90;;;2.13;;
17451;SDS011;8843;48.838;9.324;2024-02-21T05:11:47;5.77;;;2.57;;
17451;SDS011;8843;48.838;9.324;2024-02-21T05:14:14;6.13;;;2.40;;
17451;SDS011;8843;48.838;9.324;2024-02-21T05:16:42;3.70;;;2.10;;
17451;SDS011;8843;48.838;9.324;2024-02-21T05:19:10;4.53;;;2.23;;
17451;SDS011;8843;48.838;9.324;2024-02-21T05:21:37;4.87;;;2.33;;
17451;SDS011;8843;48.838;9.324;2024-02-21T05:24:04;8.33;;;2.80;;
17451;SDS011;8843;48.838;9.324;2024-02-21T05:26:32;9.13;;;2.63;;
17451;SDS011;8843;48.838;9.324;2024-02-21T05:28:59;3.20;;;2.23;;
17451;SDS011;8843;48.838;9.324;2024-02-21T05:31:26;5.27;;;2.47;;
17451;SDS011;8843;48.838;9.324;2024-02-21T05:34:10;5.27;;;2.43;;
17451;SDS011;8843;48.838;9.324;2024-02-21T05:36:37;7.37;;;2.50;;
17451;SDS011;8843;48.838;9.324;2024-02-21T05:39:05;5.33;;;2.60;;
17451;SDS011;8843;48.838;9.324;2024-02-21T05:41:32;5.57;;;2.80;;
17451;SDS011;8843;48.838;9.324;2024-02-21T05:43:59;8.37;;;2.93;;
17451;SDS011;8843;48.838;9.324;2024-02-21T05:46:26;5.50;;;2.70;;
17451;SDS011;8843;48.838;9.324;2024-02-21T05:48:53;8.00;;;2.67;;
17451;SDS011;8843;48.838;9.324;2024-02-21T05:51:22;4.20;;;2.40;;
17451;SDS011;8843;48.838;9.324;2024-02-21T05:53:49;5.60;;;3.13;;
17451;SDS011;8843;48.838;9.324;2024-02-21T05:56:16;4.40;;;2.30;;
17451;SDS011;8843;48.838;9.324;2024-02-21T05:58:44;5.77;;;2.80;;
17451;SDS011;8843;48.838;9.324;2024-02-21T06:01:13;3.77;;;2.20;;
17451;SDS011;8843;48.838;9.324;2024-02-21T06:03:43;4.97;;;2.40;;
17451;SDS011;8843;48.838;9.324;2024-02-21T06:06:10;7.73;;;2.40;;
17451;SDS011;8843;48.838;9.324;2024-02-21T06:08:40;7.93;;;2.80;;
17451;SDS011;8843;48.838;9.324;2024-02-21T06:11:07;3.33;;;2.10;;
17451;SDS011;8843;48.838;9.324;2024-02-21T06:13:37;5.77;;;2.40;;
17451;SDS011;8843;48.838;9.324;2024-02-21T06:16:05;9.60;;;2.97;;
17451;SDS011;8843;48.838;9.324;2024-02-21T06:18:34;7.70;;;2.93;;
17451;SDS011;8843;48.838;9.324;2024-02-21T06:21:04;3.93;;;2.50;;
17451;SDS011;8843;48.838;9.324;2024-02-21T06:23:32;6.80;;;2.97;;
17451;SDS011;8843;48.838;9.324;2024-02-21T06:26:01;5.37;;;3.50;;
17451;SDS011;8843;48.838;9.324;2024-02-21T06:28:28;6.87;;;2.47;;
17451;SDS011;8843;48.838;9.324;2024-02-21T06:30:55;7.70;;;3.10;;
17451;SDS011;8843;48.838;9.324;2024-02-21T06:33:22;5.73;;;2.70;;
17451;SDS011;8843;48.838;9.324;2024-02-21T06:35:50;4.70;;;2.47;;
17451;SDS011;8843;48.838;9.324;2024-02-21T06:38:19;7.07;;;2.70;;
17451;SDS011;8843;48.838;9.324;2024-02-21T06:40:46;7.23;;;2.70;;
17451;SDS011;8843;48.838;9.324;2024-02-21T06:43:19;4.30;;;2.70;;
17451;SDS011;8843;48.838;9.324;2024-02-21T06:45:47;7.80;;;2.57;;
17451;SDS011;8843;48.838;9.324;2024-02-21T06:48:16;4.03;;;2.67;;
17451;SDS011;8843;48.838;9.324;2024-02-21T06:50:45;2.80;;;2.60;;
17451;SDS011;8843;48.838;9.324;2024-02-21T06:53:14;6.87;;;2.50;;
17451;SDS011;8843;48.838;9.324;2024-02-21T06:55:41;4.90;;;2.67;;
17451;SDS011;8843;48.838;9.324;2024-02-21T06:58:08;6.23;;;2.70;;
17451;SDS011;8843;48.838;9.324;2024-02-21T07:00:41;5.40;;;2.67;;
17451;SDS011;8843;48.838;9.324;2024-02-21T07:03:09;8.07;;;3.20;;
17451;SDS011;8843;48.838;9.324;2024-02-21T07:05:35;5.87;;;3.37;;
17451;SDS011;8843;48.838;9.324;2024-02-21T07:08:03;3.67;;;2.33;;
17451;SDS011;8843;48.838;9.324;2024-02-21T07:10:30;5.43;;;2.80;;
17451;SDS011;8843;48.838;9.324;2024-02-21T07:12:57;8.30;;;3.00;;
17451;SDS011;8843;48.838;9.324;2024-02-21T07:15:25;8.30;;;4.17;;
17451;SDS011;8843;48.838;9.324;2024-02-21T07:17:55;5.23;;;2.77;;
17451;SDS011;8843;48.838;9.324;2024-02-21T07:20:22;5.57;;;3.23;;
17451;SDS011;8843;48.838;9.324;2024-02-21T07:22:50;5.87;;;3.00;;
17451;SDS011;8843;48.838;9.324;2024-02-21T07:25:17;7.43;;;2.87;;
17451;SDS011;8843;48.838;9.324;2024-02-21T07:27:46;5.93;;;2.50;;
17451;SDS011;8843;48.838;9.324;2024-02-21T07:30:13;5.77;;;3.00;;
17451;SDS011;8843;48.838;9.324;2024-02-21T07:32:40;6.77;;;3.53;;
17451;SDS011;8843;48.838;9.324;2024-02-21T07:35:10;7.83;;;3.27;;
17451;SDS011;8843;48.838;9.324;2024-02-21T07:37:37;6.03;;;2.70;;
17451;SDS011;8843;48.838;9.324;2024-02-21T07:40:05;7.23;;;2.93;;
17451;SDS011;8843;48.838;9.324;2024-02-21T07:42:33;7.67;;;3.13;;
17451;SDS011;8843;48.838;9.324;2024-02-21T07:45:01;7.40;;;3.23;;
17451;SDS011;8843;48.838;9.324;2024-02-21T07:47:29;5.90;;;2.90;;
17451;SDS011;8843;48.838;9.324;2024-02-21T07:49:56;7.73;;;3.03;;
17451;SDS011;8843;48.838;9.324;2024-02-21T07:52:26;2.93;;;2.30;;
17451;SDS011;8843;48.838;9.324;2024-02-21T07:54:54;5.27;;;3.40;;
17451;SDS011;8843;48.838;9.324;2024-02-21T07:57:25;3.90;;;2.63;;
17451;SDS011;8843;48.838;9.324;2024-02-21T07:59:53;5.67;;;2.47;;
17451;SDS011;8843;48.838;9.324;2024-02-21T08:02:20;5.87;;;3.00;;
17451;SDS011;8843;48.838;9.324;2024-02-21T08:04:49;5.30;;;2.97;;
17451;SDS011;8843;48.838;9.324;2024-02-21T08:07:16;4.70;;;2.77;;
17451;SDS011;8843;48.838;9.324;2024-02-21T08:09:45;9.60;;;3.27;;
17451;SDS011;8843;48.838;9.324;2024-02-21T08:12:14;6.33;;;2.87;;
17451;SDS011;8843;48.838;9.324;2024-02-21T08:14:43;7.43;;;3.50;;
17451;SDS011;8843;48.838;9.324;2024-02-21T08:17:10;6.00;;;2.90;;
17451;SDS011;8843;48.838;9.324;2024-02-21T08:19:37;7.87;;;2.80;;
17451;SDS011;8843;48.838;9.324;2024-02-21T08:22:04;5.17;;;3.07;;
17451;SDS011;8843;48.838;9.324;2024-02-21T08:24:32;7.47;;;3.03;;
17451;SDS011;8843;48.838;9.324;2024-02-21T08:27:01;5.73;;;2.80;;
17451;SDS011;8843;48.838;9.324;2024-02-21T08:29:29;7.57;;;3.17;;
17451;SDS011;8843;48.838;9.324;2024-02-21T08:31:56;9.03;;;3.00;;
17451;SDS011;8843;48.838;9.324;2024-02-21T08:34:24;6.67;;;2.90;;
17451;SDS011;8843;48.838;9.324;2024-02-21T08:36:51;8.03;;;2.90;;
17451;SDS011;8843;48.838;9.324;2024-02-21T08:39:20;7.17;;;3.20;;
17451;SDS011;8843;48.838;9.324;2024-02-21T08:41:48;9.93;;;2.97;;
17451;SDS011;8843;48.838;9.324;2024-02-21T08:44:17;9.10;;;2.57;;
17451;SDS011;8843;48.838;9.324;2024-02-21T08:46:44;7.10;;;3.57;;
17451;SDS011;8843;48.838;9.324;2024-02-21T08:49:12;8.37;;;3.17;;
17451;SDS011;8843;48.838;9.324;2024-02-21T08:51:40;6.00;;;2.93;;
17451;SDS011;8843;48.838;9.324;2024-02-21T08:54:08;5.67;;;2.50;;
17451;SDS011;8843;48.838;9.324;2024-02-21T08:56:36;4.60;;;2.60;;
17451;SDS011;8843;48.838;9.324;2024-02-21T08:59:03;5.77;;;2.93;;
17451;SDS011;8843;48.838;9.324;2024-02-21T09:01:32;9.73;;;3.23;;
17451;SDS011;8843;48.838;9.324;2024-02-21T09:04:00;5.03;;;3.17;;
17451;SDS011;8843;48.838;9.324;2024-02-21T09:06:28;5.30;;;2.37;;
17451;SDS011;8843;48.838;9.324;2024-02-21T09:08:56;5.00;;;2.90;;
17451;SDS011;8843;48.838;9.324;2024-02-21T09:11:23;5.27;;;2.80;;
17451;SDS011;8843;48.838;9.324;2024-02-21T09:13:50;6.23;;;3.47;;
17451;SDS011;8843;48.838;9.324;2024-02-21T09:16:17;7.70;;;2.67;;
17451;SDS011;8843;48.838;9.324;2024-02-21T09:18:46;7.77;;;2.37;;
17451;SDS011;8843;48.838;9.324;2024-02-21T09:21:13;10.60;;;2.93;;
17451;SDS011;8843;48.838;9.324;2024-02-21T09:23:42;8.57;;;2.83;;
17451;SDS011;8843;48.838;9.324;2024-02-21T09:26:11;9.53;;;2.53;;
17451;SDS011;8843;48.838;9.324;2024-02-21T09:28:41;8.03;;;3.43;;
17451;SDS011;8843;48.838;9.324;2024-02-21T09:31:10;6.63;;;2.57;;
17451;SDS011;8843;48.838;9.324;2024-02-21T09:33:37;4.50;;;2.17;;
17451;SDS011;8843;48.838;9.324;2024-02-21T09:36:07;5.90;;;2.47;;
17451;SDS011;8843;48.838;9.324;2024-02-21T09:38:35;8.67;;;3.83;;
17451;SDS011;8843;48.838;9.324;2024-02-21T09:41:04;4.13;;;1.90;;
17451;SDS011;8843;48.838;9.324;2024-02-21T09:43:42;6.03;;;2.40;;
17451;SDS011;8843;48.838;9.324;2024-02-21T09:46:12;6.07;;;2.50;;
17451;SDS011;8843;48.838;9.324;2024-02-21T09:48:46;5.97;;;2.57;;
17451;SDS011;8843;48.838;9.324;2024-02-21T09:51:32;7.33;;;2.80;;
17451;SDS011;8843;48.838;9.324;2024-02-21T09:54:01;6.63;;;2.50;;
17451;SDS011;8843;48.838;9.324;2024-02-21T09:56:30;9.77;;;2.57;;
17451;SDS011;8843;48.838;9.324;2024-02-21T09:58:58;8.03;;;2.50;;
17451;SDS011;8843;48.838;9.324;2024-02-21T10:01:26;7.97;;;2.87;;
17451;SDS011;8843;48.838;9.324;2024-02-21T10:03:56;7.17;;;2.30;;
17451;SDS011;8843;48.838;9.324;2024-02-21T10:06:23;5.37;;;1.90;;
17451;SDS011;8843;48.838;9.324;2024-02-21T10:08:55;6.17;;;2.10;;
17451;SDS011;8843;48.838;9.324;2024-02-21T10:11:22;4.53;;;2.30;;
17451;SDS011;8843;48.838;9.324;2024-02-21T10:13:51;4.37;;;2.40;;
17451;SDS011;8843;48.838;9.324;2024-02-21T10:16:18;5.43;;;2.30;;
17451;SDS011;8843;48.838;9.324;2024-02-21T10:18:46;6.00;;;2.33;;
17451;SDS011;8843;48.838;9.324;2024-02-21T10:21:13;10.07;;;2.67;;
17451;SDS011;8843;48.838;9.324;2024-02-21T10:23:40;7.33;;;2.10;;
17451;SDS011;8843;48.838;9.324;2024-02-21T10:26:10;4.70;;;2.30;;
17451;SDS011;8843;48.838;9.324;2024-02-21T10:28:37;5.57;;;2.57;;
17451;SDS011;8843;48.838;9.324;2024-02-21T10:31:07;5.73;;;2.50;;
17451;SDS011;8843;48.838;9.324;2024-02-21T10:33:36;8.40;;;2.93;;
17451;SDS011;8843;48.838;9.324;2024-02-21T10:36:07;6.13;;;2.37;;
17451;SDS011;8843;48.838;9.324;2024-02-21T10:38:37;4.37;;;2.13;;
17451;SDS011;8843;48.838;9.324;2024-02-21T10:41:05;4.73;;;2.30;;
17451;SDS011;8843;48.838;9.324;2024-02-21T10:43:37;6.17;;;2.10;;
17451;SDS011;8843;48.838;9.324;2024-02-21T10:46:07;5.93;;;2.10;;
17451;SDS011;8843;48.838;9.324;2024-02-21T10:48:41;6.60;;;2.53;;
17451;SDS011;8843;48.838;9.324;2024-02-21T10:51:16;6.87;;;2.23;;
17451;SDS011;8843;48.838;9.324;2024-02-21T10:53:47;6.43;;;2.37;;
17451;SDS011;8843;48.838;9.324;2024-02-21T10:56:25;6.73;;;1.97;;
17451;SDS011;8843;48.838;9.324;2024-02-21T10:58:56;6.57;;;2.40;;
17451;SDS011;8843;48.838;9.324;2024-02-21T11:01:24;4.73;;;2.10;;
17451;SDS011;8843;48.838;9.324;2024-02-21T11:03:54;4.77;;;2.10;;
17451;SDS011;8843;48.838;9.324;2024-02-21T11:06:23;5.57;;;2.50;;
17451;SDS011;8843;48.838;9.324;2024-02-21T11:09:02;2.90;;;1.80;;
17451;SDS011;8843;48.838;9.324;2024-02-21T11:11:34;2.33;;;1.73;;
17451;SDS011;8843;48.838;9.324;2024-02-21T11:14:07;9.10;;;2.50;;
17451;SDS011;8843;48.838;9.324;2024-02-21T11:16:44;5.83;;;2.17;;
17451;SDS011;8843;48.838;9.324;2024-02-21T11:19:19;5.53;;;2.20;;
17451;SDS011;8843;48.838;9.324;2024-02-21T11:21:46;5.80;;;2.00;;
17451;SDS011;8843;48.838;9.324;2024-02-21T11:24:14;3.80;;;2.00;;
17451;SDS011;8843;48.838;9.324;2024-02-21T11:26:52;6.67;;;2.50;;
17451;SDS011;8843;48.838;9.324;2024-02-21T11:29:24;3.53;;;2.00;;
17451;SDS011;8843;48.838;9.324;2024-02-21T11:31:51;4.30;;;2.60;;
17451;SDS011;8843;48.838;9.324;2024-02-21T11:34:19;3.90;;;1.70;;
17451;SDS011;8843;48.838;9.324;2024-02-21T11:36:49;5.57;;;1.90;;
17451;SDS011;8843;48.838;9.324;2024-02-21T11:39:20;3.57;;;1.57;;
17451;SDS011;8843;48.838;9.324;2024-02-21T11:42:00;3.43;;;1.70;;
17451;SDS011;8843;48.838;9.324;2024-02-21T11:44:31;4.53;;;1.97;;
17451;SDS011;8843;48.838;9.324;2024-02-21T11:46:58;5.03;;;1.70;;
17451;SDS011;8843;48.838;9.324;2024-02-21T11:49:26;4.07;;;1.80;;
17451;SDS011;8843;48.838;9.324;2024-02-21T11:51:59;4.97;;;1.73;;
17451;SDS011;8843;48.838;9.324;2024-02-21T11:54:29;5.70;;;2.13;;
17451;SDS011;8843;48.838;9.324;2024-02-21T11:56:56;6.87;;;2.50;;
17451;SDS011;8843;48.838;9.324;2024-02-21T11:59:23;3.77;;;1.67;;
17451;SDS011;8843;48.838;9.324;2024-02-21T12:01:52;3.63;;;2.23;;
17451;SDS011;8843;48.838;9.324;2024-02-21T12:04:20;4.93;;;1.67;;
17451;SDS011;8843;48.838;9.324;2024-02-21T12:06:51;5.73;;;2.10;;
17451;SDS011;8843;48.838;9.324;2024-02-21T12:09:22;8.40;;;2.00;;
17451;SDS011;8843;48.838;9.324;2024-02-21T12:11:56;3.83;;;2.10;;
17451;SDS011;8843;48.838;9.324;2024-02-21T12:14:24;5.40;;;1.50;;
17451;SDS011;8843;48.838;9.324;2024-02-21T12:16:54;4.90;;;2.10;;
17451;SDS011;8843;48.838;9.324;2024-02-21T12:19:21;3.20;;;1.77;;
17451;SDS011;8843;48.838;9.324;2024-02-21T12:21:48;3.40;;;1.70;;
17451;SDS011;8843;48.838;9.324;2024-02-21T12:24:17;6.87;;;1.80;;
17451;SDS011;8843;48.838;9.324;2024-02-21T12:26:48;2.20;;;1.50;;
17451;SDS011;8843;48.838;9.324;2024-02-21T12:29:15;4.37;;;1.77;;
17451;SDS011;8843;48.838;9.324;2024-02-21T12:31:42;2.63;;;1.93;;
17451;SDS011;8843;48.838;9.324;2024-02-21T12:34:11;4.30;;;1.90;;
17451;SDS011;8843;48.838;9.324;2024-02-21T12:36:41;3.87;;;1.90;;
17451;SDS011;8843;48.838;9.324;2024-02-21T12:39:08;2.53;;;1.60;;
17451;SDS011;8843;48.838;9.324;2024-02-21T12:41:37;3.97;;;1.80;;
17451;SDS011;8843;48.838;9.324;2024-02-21T12:44:05;4.13;;;1.90;;
17451;SDS011;8843;48.838;9.324;2024-02-21T12:46:33;3.57;;;2.10;;
17451;SDS011;8843;48.838;9.324;2024-02-21T12:49:01;1.80;;;1.30;;
17451;SDS011;8843;48.838;9.324;2024-02-21T12:51:30;3.90;;;1.30;;
17451;SDS011;8843;48.838;9.324;2024-02-21T12:53:58;2.80;;;1.63;;
17451;SDS011;8843;48.838;9.324;2024-02-21T12:56:25;3.43;;;1.47;;
17451;SDS011;8843;48.838;9.324;2024-02-21T12:58:53;2.60;;;1.40;;
17451;SDS011;8843;48.838;9.324;2024-02-21T13:01:20;2.60;;;1.40;;
17451;SDS011;8843;48.838;9.324;2024-02-21T13:03:49;1.43;;;1.10;;
17451;SDS011;8843;48.838;9.324;2024-02-21T13:06:16;1.63;;;1.40;;
17451;SDS011;8843;48.838;9.324;2024-02-21T13:08:46;2.17;;;1.50;;
17451;SDS011;8843;48.838;9.324;2024-02-21T13:11:13;2.67;;;1.40;;
17451;SDS011;8843;48.838;9.324;2024-02-21T13:13:40;1.87;;;1.20;;
17451;SDS011;8843;48.838;9.324;2024-02-21T13:16:07;5.80;;;1.77;;
17451;SDS011;8843;48.838;9.324;2024-02-21T13:18:37;2.00;;;1.50;;
17451;SDS011;8843;48.838;9.324;2024-02-21T13:21:05;1.07;;;1.00;;
17451;SDS011;8843;48.838;9.324;2024-02-21T13:23:35;3.37;;;1.30;;
17451;SDS011;8843;48.838;9.324;2024-02-21T13:26:04;2.70;;;1.50;;
17451;SDS011;8843;48.838;9.324;2024-02-21T13:28:32;4.50;;;1.67;;
17451;SDS011;8843;48.838;9.324;2024-02-21T13:30:59;2.67;;;1.20;;
17451;SDS011;8843;48.838;9.324;2024-02-21T13:33:28;9.17;;;1.87;;
17451;SDS011;8843;48.838;9.324;2024-02-21T13:35:55;2.23;;;1.70;;
17451;SDS011;8843;48.838;9.324;2024-02-21T13:38:21;2.17;;;1.40;;
17451;SDS011;8843;48.838;9.324;2024-02-21T13:40:49;2.50;;;1.23;;
17451;SDS011;8843;48.838;9.324;2024-02-21T13:43:17;1.47;;;1.20;;
17451;SDS011;8843;48.838;9.324;2024-02-21T13:45:45;6.40;;;1.80;;
17451;SDS011;8843;48.838;9.324;2024-02-21T13:48:22;2.53;;;1.17;;
17451;SDS011;8843;48.838;9.324;2024-02-21T13:50:51;1.60;;;1.20;;
17451;SDS011;8843;48.838;9.324;2024-02-21T13:53:19;4.07;;;1.43;;
17451;SDS011;8843;48.838;9.324;2024-02-21T13:55:46;4.80;;;1.80;;
17451;SDS011;8843;48.838;9.324;2024-02-21T13:58:15;2.70;;;1.20;;
17451;SDS011;8843;48.838;9.324;2024-02-21T14:00:44;1.53;;;1.20;;
17451;SDS011;8843;48.838;9.324;2024-02-21T14:03:11;5.40;;;1.57;;
17451;SDS011;8843;48.838;9.324;2024-02-21T14:05:38;4.37;;;1.80;;
17451;SDS011;8843;48.838;9.324;2024-02-21T14:08:06;2.10;;;1.53;;
17451;SDS011;8843;48.838;9.324;2024-02-21T14:10:33;1.73;;;1.10;;
17451;SDS011;8843;48.838;9.324;2024-02-21T14:13:02;2.13;;;1.17;;
17451;SDS011;8843;48.838;9.324;2024-02-21T14:15:29;1.43;;;1.10;;
17451;SDS011;8843;48.838;9.324;2024-02-21T14:17:58;3.43;;;1.37;;
17451;SDS011;8843;48.838;9.324;2024-02-21T14:20:25;2.83;;;1.20;;
17451;SDS011;8843;48.838;9.324;2024-02-21T14:22:52;1.03;;;0.90;;
17451;SDS011;8843;48.838;9.324;2024-02-21T14:25:20;7.33;;;1.80;;
17451;SDS011;8843;48.838;9.324;2024-02-21T14:27:47;1.70;;;1.10;;
17451;SDS011;8843;48.838;9.324;2024-02-21T14:30:14;2.40;;;1.50;;
17451;SDS011;8843;48.838;9.324;2024-02-21T14:32:43;1.33;;;1.00;;
17451;SDS011;8843;48.838;9.324;2024-02-21T14:35:12;2.77;;;1.30;;
17451;SDS011;8843;48.838;9.324;2024-02-21T14:37:40;2.07;;;1.50;;
17451;SDS011;8843;48.838;9.324;2024-02-21T14:40:08;2.03;;;1.47;;
17451;SDS011;8843;48.838;9.324;2024-02-21T14:42:35;1.40;;;1.27;;
17451;SDS011;8843;48.838;9.324;2024-02-21T14:45:08;1.77;;;1.30;;
17451;SDS011;8843;48.838;9.324;2024-02-21T14:47:36;3.53;;;1.53;;
17451;SDS011;8843;48.838;9.324;2024-02-21T14:50:03;2.23;;;1.30;;
17451;SDS011;8843;48.838;9.324;2024-02-21T14:52:34;1.63;;;1.20;;
17451;SDS011;8843;48.838;9.324;2024-02-21T14:55:02;1.57;;;1.10;;
17451;SDS011;8843;48.838;9.324;2024-02-21T14:57:30;4.30;;;1.57;;
17451;SDS011;8843;48.838;9.324;2024-02-21T14:59:57;1.40;;;1.30;;
17451;SDS011;8843;48.838;9.324;2024-02-21T15:02:24;1.47;;;1.20;;
17451;SDS011;8843;48.838;9.324;2024-02-21T15:04:54;2.30;;;1.40;;
17451;SDS011;8843;48.838;9.324;2024-02-21T15:07:21;3.63;;;1.20;;